sensor_id;sensor_type;location;lat;lon;timestamp;P1;durP1;ratioP1;P2;durP2;ratioP2
20535;SDS011;10426;49.420;8.390;2023-06-24T00:01:59;3.60;;;3.40;;
20535;SDS011;10426;49.420;8.390;2023-06-24T00:04:27;3.95;;;3.50;;
20535;SDS011;10426;49.420;8.390;2023-06-24T00:06:53;3.90;;;3.60;;
20535;SDS011;10426;49.420;8.390;2023-06-24T00:09:21;4.18;;;3.78;;
20535;SDS011;10426;49.420;8.390;2023-06-24T00:11:48;3.70;;;3.45;;
20535;SDS011;10426;49.420;8.390;2023-06-24T00:14:15;3.45;;;3.25;;
20535;SDS011;10426;49.420;8.390;2023-06-24T00:16:41;3.60;;;3.40;;
20535;SDS011;10426;49.420;8.390;2023-06-24T00:19:10;3.55;;;3.30;;
20535;SDS011;10426;49.420;8.390;2023-06-24T00:21:36;3.88;;;3.60;;
20535;SDS011;10426;49.420;8.390;2023-06-24T00:24:03;5.50;;;3.60;;
20535;SDS011;10426;49.420;8.390;2023-06-24T00:26:30;3.78;;;3.47;;
20535;SDS011;10426;49.420;8.390;2023-06-24T00:28:58;3.90;;;3.60;;
20535;SDS011;10426;49.420;8.390;2023-06-24T00:31:24;4.22;;;3.50;;
20535;SDS011;10426;49.420;8.390;2023-06-24T00:33:51;4.30;;;3.78;;
20535;SDS011;10426;49.420;8.390;2023-06-24T00:36:19;3.97;;;3.70;;
20535;SDS011;10426;49.420;8.390;2023-06-24T00:38:46;4.07;;;3.77;;
20535;SDS011;10426;49.420;8.390;2023-06-24T00:41:14;4.60;;;3.67;;
20535;SDS011;10426;49.420;8.390;2023-06-24T00:43:42;4.30;;;3.90;;
20535;SDS011;10426;49.420;8.390;2023-06-24T00:46:09;4.05;;;3.75;;
20535;SDS011;10426;49.420;8.390;2023-06-24T00:48:36;3.80;;;3.50;;
20535;SDS011;10426;49.420;8.390;2023-06-24T00:51:02;3.70;;;3.42;;
20535;SDS011;10426;49.420;8.390;2023-06-24T00:53:30;4.28;;;3.83;;
20535;SDS011;10426;49.420;8.390;2023-06-24T00:55:57;4.10;;;3.67;;
20535;SDS011;10426;49.420;8.390;2023-06-24T00:58:27;4.03;;;3.63;;
20535;SDS011;10426;49.420;8.390;2023-06-24T01:00:55;4.20;;;3.90;;
20535;SDS011;10426;49.420;8.390;2023-06-24T01:03:23;5.07;;;3.83;;
20535;SDS011;10426;49.420;8.390;2023-06-24T01:05:50;4.45;;;4.15;;
20535;SDS011;10426;49.420;8.390;2023-06-24T01:08:17;4.97;;;4.20;;
20535;SDS011;10426;49.420;8.390;2023-06-24T01:10:45;4.17;;;3.87;;
20535;SDS011;10426;49.420;8.390;2023-06-24T01:13:12;4.68;;;4.07;;
20535;SDS011;10426;49.420;8.390;2023-06-24T01:15:39;6.03;;;4.00;;
20535;SDS011;10426;49.420;8.390;2023-06-24T01:18:06;4.05;;;3.75;;
20535;SDS011;10426;49.420;8.390;2023-06-24T01:20:36;4.28;;;3.88;;
20535;SDS011;10426;49.420;8.390;2023-06-24T01:26:21;5.32;;;4.22;;
20535;SDS011;10426;49.420;8.390;2023-06-24T01:29:00;5.10;;;4.05;;
20535;SDS011;10426;49.420;8.390;2023-06-24T01:31:38;4.50;;;4.05;;
20535;SDS011;10426;49.420;8.390;2023-06-24T01:34:06;4.63;;;4.22;;
20535;SDS011;10426;49.420;8.390;2023-06-24T01:36:37;4.40;;;4.10;;
20535;SDS011;10426;49.420;8.390;2023-06-24T01:39:06;4.68;;;4.18;;
20535;SDS011;10426;49.420;8.390;2023-06-24T01:41:36;5.32;;;4.10;;
20535;SDS011;10426;49.420;8.390;2023-06-24T01:44:04;5.72;;;3.92;;
20535;SDS011;10426;49.420;8.390;2023-06-24T01:46:31;7.72;;;4.32;;
20535;SDS011;10426;49.420;8.390;2023-06-24T01:49:01;4.35;;;3.97;;
20535;SDS011;10426;49.420;8.390;2023-06-24T01:51:28;4.50;;;4.10;;
20535;SDS011;10426;49.420;8.390;2023-06-24T01:53:58;4.40;;;4.03;;
20535;SDS011;10426;49.420;8.390;2023-06-24T01:56:26;4.43;;;4.13;;
20535;SDS011;10426;49.420;8.390;2023-06-24T01:58:54;5.20;;;4.20;;
20535;SDS011;10426;49.420;8.390;2023-06-24T02:01:22;4.22;;;3.92;;
20535;SDS011;10426;49.420;8.390;2023-06-24T02:03:49;4.63;;;4.10;;
20535;SDS011;10426;49.420;8.390;2023-06-24T02:06:17;3.97;;;3.70;;
20535;SDS011;10426;49.420;8.390;2023-06-24T02:08:45;4.53;;;4.20;;
20535;SDS011;10426;49.420;8.390;2023-06-24T02:11:12;4.70;;;4.20;;
20535;SDS011;10426;49.420;8.390;2023-06-24T02:13:39;4.40;;;4.00;;
20535;SDS011;10426;49.420;8.390;2023-06-24T02:16:06;4.82;;;4.40;;
20535;SDS011;10426;49.420;8.390;2023-06-24T02:18:35;4.30;;;4.00;;
20535;SDS011;10426;49.420;8.390;2023-06-24T02:21:03;5.00;;;4.20;;
20535;SDS011;10426;49.420;8.390;2023-06-24T02:23:31;4.47;;;4.00;;
20535;SDS011;10426;49.420;8.390;2023-06-24T02:25:58;4.57;;;4.18;;
20535;SDS011;10426;49.420;8.390;2023-06-24T02:28:26;4.00;;;3.70;;
20535;SDS011;10426;49.420;8.390;2023-06-24T02:30:53;4.20;;;3.80;;
20535;SDS011;10426;49.420;8.390;2023-06-24T02:33:20;4.57;;;4.28;;
20535;SDS011;10426;49.420;8.390;2023-06-24T02:35:47;4.47;;;4.18;;
20535;SDS011;10426;49.420;8.390;2023-06-24T02:38:13;4.30;;;4.00;;
20535;SDS011;10426;49.420;8.390;2023-06-24T02:40:43;4.22;;;3.92;;
20535;SDS011;10426;49.420;8.390;2023-06-24T02:43:11;5.03;;;3.92;;
20535;SDS011;10426;49.420;8.390;2023-06-24T02:45:38;4.47;;;4.10;;
20535;SDS011;10426;49.420;8.390;2023-06-24T02:48:05;5.63;;;4.40;;
20535;SDS011;10426;49.420;8.390;2023-06-24T02:50:33;4.53;;;4.10;;
20535;SDS011;10426;49.420;8.390;2023-06-24T02:52:59;4.63;;;4.32;;
20535;SDS011;10426;49.420;8.390;2023-06-24T02:55:26;4.45;;;4.15;;
20535;SDS011;10426;49.420;8.390;2023-06-24T02:57:54;4.63;;;4.20;;
20535;SDS011;10426;49.420;8.390;2023-06-24T03:00:22;4.40;;;4.00;;
20535;SDS011;10426;49.420;8.390;2023-06-24T03:02:49;4.83;;;4.33;;
20535;SDS011;10426;49.420;8.390;2023-06-24T03:05:16;4.53;;;4.20;;
20535;SDS011;10426;49.420;8.390;2023-06-24T03:07:44;4.30;;;4.00;;
20535;SDS011;10426;49.420;8.390;2023-06-24T03:10:11;4.43;;;4.00;;
20535;SDS011;10426;49.420;8.390;2023-06-24T03:12:39;4.10;;;3.80;;
20535;SDS011;10426;49.420;8.390;2023-06-24T03:15:08;4.63;;;4.00;;
20535;SDS011;10426;49.420;8.390;2023-06-24T03:17:34;4.50;;;4.10;;
20535;SDS011;10426;49.420;8.390;2023-06-24T03:20:01;4.70;;;4.28;;
20535;SDS011;10426;49.420;8.390;2023-06-24T03:22:29;5.18;;;4.50;;
20535;SDS011;10426;49.420;8.390;2023-06-24T03:24:56;4.70;;;4.30;;
20535;SDS011;10426;49.420;8.390;2023-06-24T03:27:22;4.70;;;4.30;;
20535;SDS011;10426;49.420;8.390;2023-06-24T03:29:49;4.90;;;4.50;;
20535;SDS011;10426;49.420;8.390;2023-06-24T03:32:17;4.63;;;4.22;;
20535;SDS011;10426;49.420;8.390;2023-06-24T03:34:44;4.80;;;4.50;;
20535;SDS011;10426;49.420;8.390;2023-06-24T03:37:10;4.87;;;4.37;;
20535;SDS011;10426;49.420;8.390;2023-06-24T03:39:37;4.40;;;4.05;;
20535;SDS011;10426;49.420;8.390;2023-06-24T03:42:04;4.30;;;3.90;;
20535;SDS011;10426;49.420;8.390;2023-06-24T03:44:30;4.18;;;3.88;;
20535;SDS011;10426;49.420;8.390;2023-06-24T03:46:57;4.43;;;4.10;;
20535;SDS011;10426;49.420;8.390;2023-06-24T03:49:25;4.38;;;3.88;;
20535;SDS011;10426;49.420;8.390;2023-06-24T03:51:52;4.53;;;4.10;;
20535;SDS011;10426;49.420;8.390;2023-06-24T03:54:18;4.38;;;3.97;;
20535;SDS011;10426;49.420;8.390;2023-06-24T03:56:45;4.20;;;3.90;;
20535;SDS011;10426;49.420;8.390;2023-06-24T03:59:11;4.30;;;4.00;;
20535;SDS011;10426;49.420;8.390;2023-06-24T04:01:38;4.22;;;3.85;;
20535;SDS011;10426;49.420;8.390;2023-06-24T04:04:05;4.75;;;4.35;;
20535;SDS011;10426;49.420;8.390;2023-06-24T04:06:32;4.82;;;4.05;;
20535;SDS011;10426;49.420;8.390;2023-06-24T04:08:59;8.55;;;4.55;;
20535;SDS011;10426;49.420;8.390;2023-06-24T04:11:27;4.90;;;4.40;;
20535;SDS011;10426;49.420;8.390;2023-06-24T04:13:53;4.95;;;4.43;;
20535;SDS011;10426;49.420;8.390;2023-06-24T04:16:20;4.82;;;4.43;;
20535;SDS011;10426;49.420;8.390;2023-06-24T04:18:46;5.05;;;4.55;;
20535;SDS011;10426;49.420;8.390;2023-06-24T04:21:13;6.78;;;4.85;;
20535;SDS011;10426;49.420;8.390;2023-06-24T04:23:42;5.95;;;4.88;;
20535;SDS011;10426;49.420;8.390;2023-06-24T04:26:08;5.20;;;4.70;;
20535;SDS011;10426;49.420;8.390;2023-06-24T04:28:35;4.93;;;4.53;;
20535;SDS011;10426;49.420;8.390;2023-06-24T04:31:03;5.00;;;4.60;;
20535;SDS011;10426;49.420;8.390;2023-06-24T04:33:30;5.05;;;4.55;;
20535;SDS011;10426;49.420;8.390;2023-06-24T04:35:56;5.03;;;4.50;;
20535;SDS011;10426;49.420;8.390;2023-06-24T04:38:24;5.63;;;4.82;;
20535;SDS011;10426;49.420;8.390;2023-06-24T04:40:52;6.18;;;5.25;;
20535;SDS011;10426;49.420;8.390;2023-06-24T04:43:18;5.35;;;4.85;;
20535;SDS011;10426;49.420;8.390;2023-06-24T04:45:47;6.53;;;5.20;;
20535;SDS011;10426;49.420;8.390;2023-06-24T04:48:13;6.88;;;4.60;;
20535;SDS011;10426;49.420;8.390;2023-06-24T04:50:40;8.13;;;4.70;;
20535;SDS011;10426;49.420;8.390;2023-06-24T04:53:07;8.60;;;4.70;;
20535;SDS011;10426;49.420;8.390;2023-06-24T04:55:33;5.80;;;4.40;;
20535;SDS011;10426;49.420;8.390;2023-06-24T04:58:01;5.80;;;5.13;;
20535;SDS011;10426;49.420;8.390;2023-06-24T05:00:28;5.13;;;4.68;;
20535;SDS011;10426;49.420;8.390;2023-06-24T05:02:54;5.15;;;4.63;;
20535;SDS011;10426;49.420;8.390;2023-06-24T05:05:21;5.30;;;4.50;;
20535;SDS011;10426;49.420;8.390;2023-06-24T05:07:48;4.70;;;4.15;;
20535;SDS011;10426;49.420;8.390;2023-06-24T05:10:14;4.70;;;4.30;;
20535;SDS011;10426;49.420;8.390;2023-06-24T05:12:41;4.60;;;4.30;;
20535;SDS011;10426;49.420;8.390;2023-06-24T05:15:09;4.90;;;4.10;;
20535;SDS011;10426;49.420;8.390;2023-06-24T05:17:36;4.30;;;3.90;;
20535;SDS011;10426;49.420;8.390;2023-06-24T05:20:03;4.63;;;4.25;;
20535;SDS011;10426;49.420;8.390;2023-06-24T05:22:30;4.40;;;4.00;;
20535;SDS011;10426;49.420;8.390;2023-06-24T05:24:56;4.40;;;4.00;;
20535;SDS011;10426;49.420;8.390;2023-06-24T05:27:23;4.55;;;4.22;;
20535;SDS011;10426;49.420;8.390;2023-06-24T05:29:50;8.52;;;4.30;;
20535;SDS011;10426;49.420;8.390;2023-06-24T05:32:18;5.10;;;4.47;;
20535;SDS011;10426;49.420;8.390;2023-06-24T05:34:45;4.80;;;4.40;;
20535;SDS011;10426;49.420;8.390;2023-06-24T05:37:12;4.88;;;4.47;;
20535;SDS011;10426;49.420;8.390;2023-06-24T05:39:39;4.97;;;4.20;;
20535;SDS011;10426;49.420;8.390;2023-06-24T05:42:05;5.40;;;4.90;;
20535;SDS011;10426;49.420;8.390;2023-06-24T05:44:32;5.53;;;4.57;;
20535;SDS011;10426;49.420;8.390;2023-06-24T05:46:59;5.97;;;4.65;;
20535;SDS011;10426;49.420;8.390;2023-06-24T05:49:27;5.13;;;4.63;;
20535;SDS011;10426;49.420;8.390;2023-06-24T05:51:53;5.60;;;5.10;;
20535;SDS011;10426;49.420;8.390;2023-06-24T05:54:20;5.13;;;4.63;;
20535;SDS011;10426;49.420;8.390;2023-06-24T05:56:47;4.90;;;4.30;;
20535;SDS011;10426;49.420;8.390;2023-06-24T05:59:13;4.82;;;4.38;;
20535;SDS011;10426;49.420;8.390;2023-06-24T06:01:40;4.78;;;4.30;;
20535;SDS011;10426;49.420;8.390;2023-06-24T06:04:06;4.70;;;4.25;;
20535;SDS011;10426;49.420;8.390;2023-06-24T06:06:34;5.60;;;4.93;;
20535;SDS011;10426;49.420;8.390;2023-06-24T06:09:01;5.45;;;4.70;;
20535;SDS011;10426;49.420;8.390;2023-06-24T06:11:28;10.60;;;4.43;;
20535;SDS011;10426;49.420;8.390;2023-06-24T06:13:54;8.38;;;4.40;;
20535;SDS011;10426;49.420;8.390;2023-06-24T06:16:21;6.38;;;4.13;;
20535;SDS011;10426;49.420;8.390;2023-06-24T06:18:47;7.43;;;4.40;;
20535;SDS011;10426;49.420;8.390;2023-06-24T06:21:14;5.43;;;4.10;;
20535;SDS011;10426;49.420;8.390;2023-06-24T06:23:42;4.50;;;4.10;;
20535;SDS011;10426;49.420;8.390;2023-06-24T06:26:09;4.33;;;4.03;;
20535;SDS011;10426;49.420;8.390;2023-06-24T06:28:35;7.28;;;4.20;;
20535;SDS011;10426;49.420;8.390;2023-06-24T06:31:02;4.80;;;3.90;;
20535;SDS011;10426;49.420;8.390;2023-06-24T06:33:29;4.45;;;4.03;;
20535;SDS011;10426;49.420;8.390;2023-06-24T06:35:55;4.30;;;3.80;;
20535;SDS011;10426;49.420;8.390;2023-06-24T06:38:22;4.30;;;4.00;;
20535;SDS011;10426;49.420;8.390;2023-06-24T06:40:50;4.15;;;3.85;;
20535;SDS011;10426;49.420;8.390;2023-06-24T06:43:16;6.55;;;3.97;;
20535;SDS011;10426;49.420;8.390;2023-06-24T06:45:43;4.53;;;4.10;;
20535;SDS011;10426;49.420;8.390;2023-06-24T06:48:10;6.13;;;4.13;;
20535;SDS011;10426;49.420;8.390;2023-06-24T06:50:36;4.20;;;3.90;;
20535;SDS011;10426;49.420;8.390;2023-06-24T06:53:03;4.10;;;3.80;;
20535;SDS011;10426;49.420;8.390;2023-06-24T06:55:30;3.78;;;3.47;;
20535;SDS011;10426;49.420;8.390;2023-06-24T06:57:57;4.10;;;3.70;;
20535;SDS011;10426;49.420;8.390;2023-06-24T07:00:24;3.72;;;3.50;;
20535;SDS011;10426;49.420;8.390;2023-06-24T07:02:51;3.97;;;3.58;;
20535;SDS011;10426;49.420;8.390;2023-06-24T07:05:17;4.03;;;3.72;;
20535;SDS011;10426;49.420;8.390;2023-06-24T07:07:44;4.15;;;3.85;;
20535;SDS011;10426;49.420;8.390;2023-06-24T07:10:11;4.38;;;3.95;;
20535;SDS011;10426;49.420;8.390;2023-06-24T07:12:37;3.85;;;3.60;;
20535;SDS011;10426;49.420;8.390;2023-06-24T07:15:06;3.85;;;3.53;;
20535;SDS011;10426;49.420;8.390;2023-06-24T07:17:33;4.17;;;3.73;;
20535;SDS011;10426;49.420;8.390;2023-06-24T07:19:59;3.60;;;3.40;;
20535;SDS011;10426;49.420;8.390;2023-06-24T07:22:26;3.50;;;3.20;;
20535;SDS011;10426;49.420;8.390;2023-06-24T07:24:52;3.72;;;3.42;;
20535;SDS011;10426;49.420;8.390;2023-06-24T07:27:21;4.47;;;3.60;;
20535;SDS011;10426;49.420;8.390;2023-06-24T07:29:48;4.07;;;3.20;;
20535;SDS011;10426;49.420;8.390;2023-06-24T07:32:16;4.10;;;3.47;;
20535;SDS011;10426;49.420;8.390;2023-06-24T07:34:42;3.80;;;3.50;;
20535;SDS011;10426;49.420;8.390;2023-06-24T07:37:09;3.35;;;3.15;;
20535;SDS011;10426;49.420;8.390;2023-06-24T07:39:35;3.53;;;3.30;;
20535;SDS011;10426;49.420;8.390;2023-06-24T07:42:02;3.40;;;3.10;;
20535;SDS011;10426;49.420;8.390;2023-06-24T07:44:29;4.82;;;3.20;;
20535;SDS011;10426;49.420;8.390;2023-06-24T07:46:56;3.80;;;3.00;;
20535;SDS011;10426;49.420;8.390;2023-06-24T07:49:25;3.65;;;3.30;;
20535;SDS011;10426;49.420;8.390;2023-06-24T07:51:51;5.00;;;3.35;;
20535;SDS011;10426;49.420;8.390;2023-06-24T07:54:18;3.53;;;3.33;;
20535;SDS011;10426;49.420;8.390;2023-06-24T07:56:45;3.50;;;3.20;;
20535;SDS011;10426;49.420;8.390;2023-06-24T07:59:11;3.45;;;3.25;;
20535;SDS011;10426;49.420;8.390;2023-06-24T08:01:38;3.45;;;3.15;;
20535;SDS011;10426;49.420;8.390;2023-06-24T08:04:05;3.33;;;3.03;;
20535;SDS011;10426;49.420;8.390;2023-06-24T08:06:33;3.00;;;2.80;;
20535;SDS011;10426;49.420;8.390;2023-06-24T08:08:59;4.45;;;3.00;;
20535;SDS011;10426;49.420;8.390;2023-06-24T08:11:26;3.35;;;3.15;;
20535;SDS011;10426;49.420;8.390;2023-06-24T08:13:52;4.78;;;3.10;;
20535;SDS011;10426;49.420;8.390;2023-06-24T08:16:19;3.33;;;3.03;;
20535;SDS011;10426;49.420;8.390;2023-06-24T08:18:46;3.05;;;2.70;;
20535;SDS011;10426;49.420;8.390;2023-06-24T08:21:12;3.30;;;3.00;;
20535;SDS011;10426;49.420;8.390;2023-06-24T08:23:40;3.10;;;2.90;;
20535;SDS011;10426;49.420;8.390;2023-06-24T08:26:07;3.33;;;3.03;;
20535;SDS011;10426;49.420;8.390;2023-06-24T08:28:34;3.10;;;2.90;;
20535;SDS011;10426;49.420;8.390;2023-06-24T08:31:01;2.97;;;2.70;;
20535;SDS011;10426;49.420;8.390;2023-06-24T08:33:27;3.05;;;2.83;;
20535;SDS011;10426;49.420;8.390;2023-06-24T08:35:54;3.22;;;2.92;;
20535;SDS011;10426;49.420;8.390;2023-06-24T08:38:21;3.10;;;2.75;;
20535;SDS011;10426;49.420;8.390;2023-06-24T08:40:48;5.57;;;2.78;;
20535;SDS011;10426;49.420;8.390;2023-06-24T08:43:15;3.08;;;2.88;;
20535;SDS011;10426;49.420;8.390;2023-06-24T08:45:42;2.90;;;2.70;;
20535;SDS011;10426;49.420;8.390;2023-06-24T08:48:09;3.30;;;3.00;;
20535;SDS011;10426;49.420;8.390;2023-06-24T08:50:36;2.90;;;2.67;;
20535;SDS011;10426;49.420;8.390;2023-06-24T08:53:07;3.33;;;2.70;;
20535;SDS011;10426;49.420;8.390;2023-06-24T08:55:34;3.15;;;2.95;;
20535;SDS011;10426;49.420;8.390;2023-06-24T08:58:04;4.25;;;2.80;;
20535;SDS011;10426;49.420;8.390;2023-06-24T09:00:31;3.17;;;2.90;;
20535;SDS011;10426;49.420;8.390;2023-06-24T09:02:57;2.97;;;2.70;;
20535;SDS011;10426;49.420;8.390;2023-06-24T09:05:24;3.00;;;2.80;;
20535;SDS011;10426;49.420;8.390;2023-06-24T09:07:51;2.80;;;2.45;;
20535;SDS011;10426;49.420;8.390;2023-06-24T09:10:30;3.05;;;2.75;;
20535;SDS011;10426;49.420;8.390;2023-06-24T09:12:57;2.63;;;2.50;;
20535;SDS011;10426;49.420;8.390;2023-06-24T09:15:26;2.77;;;2.50;;
20535;SDS011;10426;49.420;8.390;2023-06-24T09:17:55;6.15;;;2.70;;
20535;SDS011;10426;49.420;8.390;2023-06-24T09:20:22;4.13;;;2.90;;
20535;SDS011;10426;49.420;8.390;2023-06-24T09:22:49;5.18;;;3.00;;
20535;SDS011;10426;49.420;8.390;2023-06-24T09:25:16;2.67;;;2.55;;
20535;SDS011;10426;49.420;8.390;2023-06-24T09:27:46;28.88;;;3.75;;
20535;SDS011;10426;49.420;8.390;2023-06-24T09:30:17;13.80;;;3.30;;
20535;SDS011;10426;49.420;8.390;2023-06-24T09:32:46;27.85;;;6.18;;
20535;SDS011;10426;49.420;8.390;2023-06-24T09:35:13;87.65;;;8.35;;
20535;SDS011;10426;49.420;8.390;2023-06-24T09:37:39;12.07;;;4.50;;
20535;SDS011;10426;49.420;8.390;2023-06-24T09:40:06;21.80;;;4.22;;
20535;SDS011;10426;49.420;8.390;2023-06-24T09:42:35;27.10;;;7.78;;
20535;SDS011;10426;49.420;8.390;2023-06-24T09:45:05;8.82;;;2.95;;
20535;SDS011;10426;49.420;8.390;2023-06-24T09:47:32;2.83;;;2.58;;
20535;SDS011;10426;49.420;8.390;2023-06-24T09:50:00;6.00;;;3.10;;
20535;SDS011;10426;49.420;8.390;2023-06-24T09:52:26;7.57;;;3.08;;
20535;SDS011;10426;49.420;8.390;2023-06-24T09:54:53;87.60;;;5.43;;
20535;SDS011;10426;49.420;8.390;2023-06-24T09:57:23;7.63;;;2.95;;
20535;SDS011;10426;49.420;8.390;2023-06-24T09:59:50;9.73;;;2.90;;
20535;SDS011;10426;49.420;8.390;2023-06-24T10:02:16;2.58;;;2.38;;
20535;SDS011;10426;49.420;8.390;2023-06-24T10:04:44;2.90;;;2.70;;
20535;SDS011;10426;49.420;8.390;2023-06-24T10:07:13;3.13;;;2.80;;
20535;SDS011;10426;49.420;8.390;2023-06-24T10:09:40;2.83;;;2.63;;
20535;SDS011;10426;49.420;8.390;2023-06-24T10:12:08;24.80;;;3.78;;
20535;SDS011;10426;49.420;8.390;2023-06-24T10:14:35;18.30;;;3.80;;
20535;SDS011;10426;49.420;8.390;2023-06-24T10:17:02;3.78;;;2.63;;
20535;SDS011;10426;49.420;8.390;2023-06-24T10:19:29;2.80;;;2.60;;
20535;SDS011;10426;49.420;8.390;2023-06-24T10:21:57;3.15;;;2.50;;
20535;SDS011;10426;49.420;8.390;2023-06-24T10:24:29;2.47;;;2.38;;
20535;SDS011;10426;49.420;8.390;2023-06-24T10:27:00;2.58;;;2.47;;
20535;SDS011;10426;49.420;8.390;2023-06-24T10:29:30;2.90;;;2.70;;
20535;SDS011;10426;49.420;8.390;2023-06-24T10:31:57;2.80;;;2.67;;
20535;SDS011;10426;49.420;8.390;2023-06-24T10:34:33;4.05;;;2.53;;
20535;SDS011;10426;49.420;8.390;2023-06-24T10:37:01;3.70;;;2.53;;
20535;SDS011;10426;49.420;8.390;2023-06-24T10:39:35;3.08;;;2.70;;
20535;SDS011;10426;49.420;8.390;2023-06-24T10:44:47;2.60;;;2.50;;
20535;SDS011;10426;49.420;8.390;2023-06-24T10:47:14;2.50;;;2.40;;
20535;SDS011;10426;49.420;8.390;2023-06-24T10:49:40;2.40;;;2.30;;
20535;SDS011;10426;49.420;8.390;2023-06-24T10:52:07;2.60;;;2.47;;
20535;SDS011;10426;49.420;8.390;2023-06-24T10:54:35;2.78;;;2.63;;
20535;SDS011;10426;49.420;8.390;2023-06-24T10:57:02;2.88;;;2.50;;
20535;SDS011;10426;49.420;8.390;2023-06-24T10:59:33;2.70;;;2.60;;
20535;SDS011;10426;49.420;8.390;2023-06-24T11:02:00;2.90;;;2.70;;
20535;SDS011;10426;49.420;8.390;2023-06-24T11:04:26;2.42;;;2.33;;
20535;SDS011;10426;49.420;8.390;2023-06-24T11:07:02;4.10;;;2.70;;
20535;SDS011;10426;49.420;8.390;2023-06-24T11:09:29;2.60;;;2.40;;
20535;SDS011;10426;49.420;8.390;2023-06-24T11:11:57;2.75;;;2.55;;
20535;SDS011;10426;49.420;8.390;2023-06-24T11:14:23;3.77;;;2.43;;
20535;SDS011;10426;49.420;8.390;2023-06-24T11:16:50;2.70;;;2.50;;
20535;SDS011;10426;49.420;8.390;2023-06-24T11:19:17;2.40;;;2.20;;
20535;SDS011;10426;49.420;8.390;2023-06-24T11:21:43;2.50;;;2.40;;
20535;SDS011;10426;49.420;8.390;2023-06-24T11:24:10;2.60;;;2.50;;
20535;SDS011;10426;49.420;8.390;2023-06-24T11:26:37;2.88;;;2.67;;
20535;SDS011;10426;49.420;8.390;2023-06-24T11:29:10;2.92;;;2.70;;
20535;SDS011;10426;49.420;8.390;2023-06-24T11:31:37;2.40;;;2.30;;
20535;SDS011;10426;49.420;8.390;2023-06-24T11:34:03;4.63;;;2.55;;
20535;SDS011;10426;49.420;8.390;2023-06-24T11:36:30;4.38;;;2.60;;
20535;SDS011;10426;49.420;8.390;2023-06-24T11:38:57;2.70;;;2.50;;
20535;SDS011;10426;49.420;8.390;2023-06-24T11:41:24;2.70;;;2.50;;
20535;SDS011;10426;49.420;8.390;2023-06-24T11:43:53;2.55;;;2.45;;
20535;SDS011;10426;49.420;8.390;2023-06-24T11:46:25;2.63;;;2.50;;
20535;SDS011;10426;49.420;8.390;2023-06-24T11:48:52;2.60;;;2.40;;
20535;SDS011;10426;49.420;8.390;2023-06-24T11:51:18;2.67;;;2.57;;
20535;SDS011;10426;49.420;8.390;2023-06-24T11:53:46;4.97;;;2.57;;
20535;SDS011;10426;49.420;8.390;2023-06-24T11:56:12;2.50;;;2.40;;
20535;SDS011;10426;49.420;8.390;2023-06-24T11:58:39;2.50;;;2.40;;
20535;SDS011;10426;49.420;8.390;2023-06-24T12:01:06;2.50;;;2.40;;
20535;SDS011;10426;49.420;8.390;2023-06-24T12:03:34;2.70;;;2.60;;
20535;SDS011;10426;49.420;8.390;2023-06-24T12:06:01;2.78;;;2.58;;
20535;SDS011;10426;49.420;8.390;2023-06-24T12:08:27;2.50;;;2.40;;
20535;SDS011;10426;49.420;8.390;2023-06-24T12:10:54;2.50;;;2.40;;
20535;SDS011;10426;49.420;8.390;2023-06-24T12:13:22;4.40;;;2.13;;
20535;SDS011;10426;49.420;8.390;2023-06-24T12:15:48;2.45;;;2.30;;
20535;SDS011;10426;49.420;8.390;2023-06-24T12:18:15;6.25;;;2.40;;
20535;SDS011;10426;49.420;8.390;2023-06-24T12:20:43;2.38;;;2.22;;
20535;SDS011;10426;49.420;8.390;2023-06-24T12:23:09;2.63;;;2.30;;
20535;SDS011;10426;49.420;8.390;2023-06-24T12:25:36;4.20;;;2.17;;
20535;SDS011;10426;49.420;8.390;2023-06-24T12:28:03;2.35;;;2.25;;
20535;SDS011;10426;49.420;8.390;2023-06-24T12:30:29;2.22;;;2.03;;
20535;SDS011;10426;49.420;8.390;2023-06-24T12:32:56;2.63;;;2.50;;
20535;SDS011;10426;49.420;8.390;2023-06-24T12:35:23;2.70;;;2.22;;
20535;SDS011;10426;49.420;8.390;2023-06-24T12:37:52;2.30;;;2.20;;
20535;SDS011;10426;49.420;8.390;2023-06-24T12:40:18;2.20;;;2.10;;
20535;SDS011;10426;49.420;8.390;2023-06-24T12:42:45;2.90;;;2.33;;
20535;SDS011;10426;49.420;8.390;2023-06-24T12:45:12;2.33;;;2.13;;
20535;SDS011;10426;49.420;8.390;2023-06-24T12:47:38;2.50;;;2.40;;
20535;SDS011;10426;49.420;8.390;2023-06-24T12:50:05;2.47;;;2.38;;
20535;SDS011;10426;49.420;8.390;2023-06-24T12:52:33;2.65;;;2.20;;
20535;SDS011;10426;49.420;8.390;2023-06-24T12:55:01;2.33;;;2.23;;
20535;SDS011;10426;49.420;8.390;2023-06-24T12:57:29;2.38;;;2.22;;
20535;SDS011;10426;49.420;8.390;2023-06-24T12:59:55;2.28;;;2.17;;
20535;SDS011;10426;49.420;8.390;2023-06-24T13:02:22;3.17;;;2.30;;
20535;SDS011;10426;49.420;8.390;2023-06-24T13:04:49;2.40;;;2.30;;
20535;SDS011;10426;49.420;8.390;2023-06-24T13:07:15;2.60;;;2.40;;
20535;SDS011;10426;49.420;8.390;2023-06-24T13:09:42;2.67;;;2.55;;
20535;SDS011;10426;49.420;8.390;2023-06-24T13:12:10;2.40;;;2.30;;
20535;SDS011;10426;49.420;8.390;2023-06-24T13:14:36;2.58;;;2.38;;
20535;SDS011;10426;49.420;8.390;2023-06-24T13:17:03;2.50;;;2.40;;
20535;SDS011;10426;49.420;8.390;2023-06-24T13:19:30;3.37;;;2.20;;
20535;SDS011;10426;49.420;8.390;2023-06-24T13:21:57;2.53;;;2.33;;
20535;SDS011;10426;49.420;8.390;2023-06-24T13:24:24;4.60;;;2.38;;
20535;SDS011;10426;49.420;8.390;2023-06-24T13:26:51;2.53;;;2.33;;
20535;SDS011;10426;49.420;8.390;2023-06-24T13:29:19;2.47;;;2.28;;
20535;SDS011;10426;49.420;8.390;2023-06-24T13:31:46;2.50;;;2.30;;
20535;SDS011;10426;49.420;8.390;2023-06-24T13:34:13;2.83;;;2.40;;
20535;SDS011;10426;49.420;8.390;2023-06-24T13:36:39;2.20;;;2.10;;
20535;SDS011;10426;49.420;8.390;2023-06-24T13:39:07;2.40;;;2.30;;
20535;SDS011;10426;49.420;8.390;2023-06-24T13:41:34;2.30;;;2.20;;
20535;SDS011;10426;49.420;8.390;2023-06-24T13:44:01;2.70;;;2.50;;
20535;SDS011;10426;49.420;8.390;2023-06-24T13:46:30;2.72;;;2.53;;
20535;SDS011;10426;49.420;8.390;2023-06-24T13:48:56;3.40;;;2.55;;
20535;SDS011;10426;49.420;8.390;2023-06-24T13:51:23;4.72;;;2.63;;
20535;SDS011;10426;49.420;8.390;2023-06-24T13:53:51;3.25;;;2.60;;
20535;SDS011;10426;49.420;8.390;2023-06-24T13:56:18;2.92;;;2.50;;
20535;SDS011;10426;49.420;8.390;2023-06-24T13:58:45;2.53;;;2.33;;
20535;SDS011;10426;49.420;8.390;2023-06-24T14:01:11;3.92;;;2.47;;
20535;SDS011;10426;49.420;8.390;2023-06-24T14:03:39;4.30;;;2.60;;
20535;SDS011;10426;49.420;8.390;2023-06-24T14:06:06;2.70;;;2.50;;
20535;SDS011;10426;49.420;8.390;2023-06-24T14:08:33;2.90;;;2.58;;
20535;SDS011;10426;49.420;8.390;2023-06-24T14:11:00;3.00;;;2.50;;
20535;SDS011;10426;49.420;8.390;2023-06-24T14:13:27;4.03;;;2.72;;
20535;SDS011;10426;49.420;8.390;2023-06-24T14:15:54;2.60;;;2.40;;
20535;SDS011;10426;49.420;8.390;2023-06-24T14:18:20;2.90;;;2.60;;
20535;SDS011;10426;49.420;8.390;2023-06-24T14:20:48;3.75;;;2.80;;
20535;SDS011;10426;49.420;8.390;2023-06-24T14:23:15;4.20;;;2.60;;
20535;SDS011;10426;49.420;8.390;2023-06-24T14:25:42;2.83;;;2.63;;
20535;SDS011;10426;49.420;8.390;2023-06-24T14:28:08;4.47;;;2.80;;
20535;SDS011;10426;49.420;8.390;2023-06-24T14:30:35;2.70;;;2.50;;
20535;SDS011;10426;49.420;8.390;2023-06-24T14:33:02;2.58;;;2.45;;
20535;SDS011;10426;49.420;8.390;2023-06-24T14:35:28;2.70;;;2.60;;
20535;SDS011;10426;49.420;8.390;2023-06-24T14:37:56;2.80;;;2.60;;
20535;SDS011;10426;49.420;8.390;2023-06-24T14:40:23;2.70;;;2.60;;
20535;SDS011;10426;49.420;8.390;2023-06-24T14:42:50;2.90;;;2.60;;
20535;SDS011;10426;49.420;8.390;2023-06-24T14:45:16;3.03;;;2.72;;
20535;SDS011;10426;49.420;8.390;2023-06-24T14:47:43;2.87;;;2.67;;
20535;SDS011;10426;49.420;8.390;2023-06-24T14:50:10;3.10;;;2.90;;
20535;SDS011;10426;49.420;8.390;2023-06-24T14:52:36;2.90;;;2.70;;
20535;SDS011;10426;49.420;8.390;2023-06-24T14:55:05;3.80;;;3.05;;